createdAt,value
2023-04-08T00:01:09.568Z,8.50
2023-04-08T00:03:37.506Z,7.87
2023-04-08T00:06:06.877Z,8.90
2023-04-08T00:08:35.054Z,8.00
2023-04-08T00:11:02.821Z,7.07
2023-04-08T00:13:30.981Z,7.07
2023-04-08T00:15:59.366Z,7.63
2023-04-08T00:18:27.139Z,7.30
2023-04-08T00:20:54.912Z,7.90
2023-04-08T00:23:24.081Z,7.37
2023-04-08T00:25:52.001Z,7.57
2023-04-08T00:28:19.767Z,7.77
2023-04-08T00:30:47.553Z,9.07
2023-04-08T00:33:15.418Z,7.97
2023-04-08T00:35:43.235Z,8.73
2023-04-08T00:38:11.416Z,8.67
2023-04-08T00:40:40.694Z,8.63
2023-04-08T00:43:08.568Z,7.67
2023-04-08T00:45:36.359Z,7.87
2023-04-08T00:48:05.453Z,7.47
2023-04-08T00:50:33.366Z,8.30
2023-04-08T00:53:01.212Z,8.47
2023-04-08T00:55:29.169Z,7.77
2023-04-08T00:57:59.192Z,7.67
2023-04-08T01:00:27.247Z,7.87
2023-04-08T01:03:03.958Z,7.83
2023-04-08T01:05:41.430Z,7.97
2023-04-08T01:08:11.054Z,8.50
2023-04-08T01:10:42.792Z,7.77
2023-04-08T01:13:15.342Z,7.37
2023-04-08T01:15:45.191Z,7.67
2023-04-08T01:18:14.648Z,7.93
2023-04-08T01:20:44.034Z,7.93
2023-04-08T01:23:19.019Z,8.30
2023-04-08T01:25:50.328Z,8.73
2023-04-08T01:28:20.086Z,8.50
2023-04-08T01:30:50.112Z,8.27
2023-04-08T01:33:21.351Z,8.47
2023-04-08T01:35:49.575Z,8.47
2023-04-08T01:38:20.541Z,8.17
2023-04-08T01:40:50.655Z,7.73
2023-04-08T01:43:19.869Z,8.03
2023-04-08T01:45:49.494Z,8.07
2023-04-08T01:48:17.381Z,8.47
2023-04-08T01:50:46.163Z,7.60
2023-04-08T01:53:14.165Z,8.07
2023-04-08T01:55:43.020Z,7.83
2023-04-08T01:58:19.042Z,6.77
2023-04-08T02:00:47.589Z,8.17
2023-04-08T02:03:18.307Z,6.70
2023-04-08T02:05:46.339Z,6.90
2023-04-08T02:08:14.117Z,6.40
2023-04-08T02:10:41.922Z,6.13
2023-04-08T02:13:09.958Z,6.20
2023-04-08T02:15:43.927Z,7.17
2023-04-08T02:18:16.932Z,6.33
2023-04-08T02:20:48.821Z,7.20
2023-04-08T02:23:20.685Z,6.80
2023-04-08T02:25:49.513Z,7.33
2023-04-08T02:28:19.666Z,6.43
2023-04-08T02:30:51.596Z,6.73
2023-04-08T02:33:21.962Z,6.40
2023-04-08T02:35:54.412Z,6.17
2023-04-08T02:38:23.869Z,7.17
2023-04-08T02:40:52.252Z,6.97
2023-04-08T02:43:20.171Z,6.50
2023-04-08T02:45:49.522Z,7.30
2023-04-08T02:48:17.313Z,6.40
2023-04-08T02:50:45.080Z,6.60
2023-04-08T02:53:12.890Z,7.17
2023-04-08T02:55:40.679Z,7.03
2023-04-08T02:58:08.539Z,7.40
2023-04-08T03:00:37.157Z,7.10
2023-04-08T03:03:06.531Z,7.57
2023-04-08T03:05:35.060Z,7.57
2023-04-08T03:08:02.829Z,7.60
2023-04-08T03:10:30.628Z,7.70
2023-04-08T03:12:58.448Z,7.00
2023-04-08T03:15:26.303Z,6.17
2023-04-08T03:17:54.141Z,7.10
2023-04-08T03:20:23.353Z,6.50
2023-04-08T03:22:51.410Z,6.40
2023-04-08T03:25:19.415Z,7.03
2023-04-08T03:27:47.302Z,6.73
2023-04-08T03:30:15.228Z,6.37
2023-04-08T03:32:43.095Z,6.60
2023-04-08T03:35:10.996Z,6.63
2023-04-08T03:37:40.374Z,7.23
2023-04-08T03:40:09.792Z,7.47
2023-04-08T03:42:37.588Z,7.10
2023-04-08T03:45:06.332Z,6.80
2023-04-08T03:47:34.685Z,6.27
2023-04-08T03:50:03.232Z,7.07
2023-04-08T03:52:31.219Z,6.47
2023-04-08T03:55:00.356Z,7.00
2023-04-08T03:57:28.156Z,7.10
2023-04-08T03:59:55.943Z,7.83
2023-04-08T04:02:23.865Z,8.10
2023-04-08T04:04:51.865Z,7.03
2023-04-08T04:07:19.717Z,7.53
2023-04-08T04:09:47.493Z,8.30
2023-04-08T04:12:16.740Z,6.80
2023-04-08T04:14:44.522Z,7.07
2023-04-08T04:17:12.256Z,7.77
2023-04-08T04:19:40.039Z,8.13
2023-04-08T04:22:07.863Z,7.47
2023-04-08T04:24:35.623Z,7.10
2023-04-08T04:27:03.397Z,7.67
2023-04-08T04:29:33.709Z,7.57
2023-04-08T04:32:01.459Z,6.87
2023-04-08T04:34:29.254Z,6.43
2023-04-08T04:36:56.992Z,6.63
2023-04-08T04:39:24.844Z,7.50
2023-04-08T04:41:52.601Z,6.27
2023-04-08T04:44:20.543Z,6.30
2023-04-08T04:46:49.692Z,6.63
2023-04-08T04:49:17.871Z,6.70
2023-04-08T04:51:45.697Z,6.17
2023-04-08T04:54:13.502Z,6.27
2023-04-08T04:56:41.637Z,5.63
2023-04-08T04:59:09.541Z,5.23
2023-04-08T05:01:37.428Z,5.13
2023-04-08T05:04:06.648Z,5.00
2023-04-08T05:06:34.822Z,4.67
2023-04-08T05:09:02.671Z,4.90
2023-04-08T05:11:30.472Z,4.27
2023-04-08T05:13:58.254Z,4.20
2023-04-08T05:16:26.117Z,4.30
2023-04-08T05:18:53.901Z,4.53
2023-04-08T05:21:23.870Z,4.03
2023-04-08T05:23:52.950Z,4.53
2023-04-08T05:26:21.659Z,3.70
2023-04-08T05:28:49.887Z,4.13
2023-04-08T05:31:18.056Z,4.03
2023-04-08T05:33:46.159Z,3.63
2023-04-08T05:36:15.244Z,4.17
2023-04-08T05:38:44.362Z,3.90
2023-04-08T05:41:12.282Z,3.70
2023-04-08T05:43:40.317Z,3.93
2023-04-08T05:46:08.708Z,4.30
2023-04-08T05:48:36.955Z,4.20
2023-04-08T05:51:05.118Z,3.73
2023-04-08T05:53:32.900Z,3.50
2023-04-08T05:56:01.993Z,3.60
2023-04-08T05:58:29.732Z,4.03
2023-04-08T06:00:57.529Z,3.77
2023-04-08T06:03:25.447Z,3.60
2023-04-08T06:05:53.347Z,3.60
2023-04-08T06:08:21.123Z,3.43
2023-04-08T06:10:52.041Z,3.40
2023-04-08T06:13:21.913Z,3.20
2023-04-08T06:15:50.178Z,3.00
2023-04-08T06:18:18.130Z,3.47
2023-04-08T06:20:46.360Z,3.57
2023-04-08T06:23:14.169Z,3.50
2023-04-08T06:25:41.978Z,3.33
2023-04-08T06:28:09.761Z,3.73
2023-04-08T06:30:38.863Z,3.40
2023-04-08T06:33:06.635Z,3.40
2023-04-08T06:35:34.458Z,3.60
2023-04-08T06:38:02.222Z,3.73
2023-04-08T06:40:30.154Z,3.67
2023-04-08T06:42:57.889Z,3.73
2023-04-08T06:45:26.037Z,3.60
2023-04-08T06:47:56.291Z,3.60
2023-04-08T06:50:24.090Z,3.70
2023-04-08T06:52:51.802Z,3.70
2023-04-08T06:55:19.627Z,3.80
2023-04-08T06:57:47.370Z,4.43
2023-04-08T07:00:15.544Z,3.80
2023-04-08T07:02:43.413Z,3.80
2023-04-08T07:05:12.602Z,4.30
2023-04-08T07:07:40.334Z,3.60
2023-04-08T07:10:10.958Z,3.43
2023-04-08T07:12:39.029Z,3.27
2023-04-08T07:15:08.148Z,3.57
2023-04-08T07:17:35.932Z,3.50
2023-04-08T07:20:03.967Z,3.17
2023-04-08T07:22:33.053Z,4.17
2023-04-08T07:25:00.811Z,4.60
2023-04-08T07:27:28.555Z,4.17
2023-04-08T07:29:56.594Z,4.77
2023-04-08T07:32:24.439Z,3.77
2023-04-08T07:34:52.257Z,4.13
2023-04-08T07:37:20.188Z,3.77
2023-04-08T07:39:49.315Z,3.47
2023-04-08T07:42:17.081Z,4.27
2023-04-08T07:44:44.965Z,4.93
2023-04-08T07:47:13.019Z,5.10
2023-04-08T07:49:41.115Z,3.80
2023-04-08T07:52:08.934Z,3.80
2023-04-08T07:54:36.705Z,3.83
2023-04-08T07:57:06.092Z,3.70
2023-04-08T07:59:34.001Z,3.77
2023-04-08T08:02:01.757Z,3.30
2023-04-08T08:04:29.840Z,2.90
2023-04-08T08:06:57.761Z,3.67
2023-04-08T08:09:25.582Z,3.43
2023-04-08T08:11:53.348Z,3.13
2023-04-08T08:14:22.434Z,4.13
2023-04-08T08:16:50.574Z,3.10
2023-04-08T08:19:18.314Z,3.90
2023-04-08T08:21:46.150Z,3.43
2023-04-08T08:24:14.078Z,3.20
2023-04-08T08:26:41.912Z,3.67
2023-04-08T08:29:09.662Z,3.10
2023-04-08T08:31:38.843Z,3.23
2023-04-08T08:34:06.721Z,3.33
2023-04-08T08:36:34.883Z,4.17
2023-04-08T08:39:02.887Z,4.13
2023-04-08T08:41:35.832Z,3.70
2023-04-08T08:44:06.231Z,3.57
2023-04-08T08:46:34.326Z,3.33
2023-04-08T08:49:03.699Z,3.33
2023-04-08T08:51:32.605Z,3.93
2023-04-08T08:54:03.800Z,3.53
2023-04-08T08:56:31.748Z,3.30
2023-04-08T08:58:59.534Z,3.73
2023-04-08T09:01:35.230Z,3.60
2023-04-08T09:04:13.953Z,3.17
2023-04-08T09:06:42.175Z,3.87
2023-04-08T09:09:11.134Z,3.40
2023-04-08T09:11:40.687Z,3.80
2023-04-08T09:14:19.525Z,4.07
2023-04-08T09:16:47.489Z,3.80
2023-04-08T09:19:16.642Z,4.13
2023-04-08T09:21:44.830Z,3.97
2023-04-08T09:24:28.985Z,3.07
2023-04-08T09:26:57.204Z,3.73
2023-04-08T09:29:27.105Z,3.70
2023-04-08T09:31:57.479Z,3.27
2023-04-08T09:34:28.337Z,3.40
2023-04-08T09:36:56.790Z,4.30
2023-04-08T09:39:24.734Z,2.67
2023-04-08T09:41:53.375Z,4.13
2023-04-08T09:44:23.497Z,3.80
2023-04-08T09:47:01.335Z,3.77
2023-04-08T09:49:34.770Z,3.27
2023-04-08T09:52:08.612Z,3.30
2023-04-08T09:54:45.304Z,4.70
2023-04-08T09:57:17.249Z,4.53
2023-04-08T09:59:52.445Z,4.43
2023-04-08T10:02:30.566Z,4.13
2023-04-08T10:05:01.174Z,4.47
2023-04-08T10:07:29.001Z,4.10
2023-04-08T10:09:58.239Z,3.93
2023-04-08T10:12:26.162Z,3.43
2023-04-08T10:15:25.950Z,3.47
2023-04-08T10:17:54.204Z,3.20
2023-04-08T10:20:45.795Z,3.10
2023-04-08T10:23:14.312Z,2.63
2023-04-08T10:25:43.013Z,3.07
2023-04-08T10:28:26.975Z,2.60
2023-04-08T10:30:56.458Z,2.40
2023-04-08T10:33:32.592Z,2.57
2023-04-08T10:36:11.106Z,3.10
2023-04-08T10:38:39.417Z,2.97
2023-04-08T10:41:07.252Z,3.00
2023-04-08T10:43:35.753Z,3.00
2023-04-08T10:46:05.189Z,3.60
2023-04-08T10:48:33.190Z,3.60
2023-04-08T10:51:03.594Z,3.47
2023-04-08T10:53:33.387Z,3.40
2023-04-08T10:56:08.558Z,3.40
2023-04-08T10:58:37.314Z,3.30
2023-04-08T11:01:07.293Z,3.23
2023-04-08T11:03:35.699Z,3.13
2023-04-08T11:06:05.783Z,3.00
2023-04-08T11:08:34.915Z,4.00
2023-04-08T11:11:03.933Z,3.63
2023-04-08T11:13:32.247Z,3.60
2023-04-08T11:16:02.427Z,3.83
2023-04-08T11:18:31.285Z,4.00
2023-04-08T11:21:00.336Z,5.27
2023-04-08T11:23:29.783Z,4.80
2023-04-08T11:25:58.282Z,4.00
2023-04-08T11:28:27.045Z,5.00
2023-04-08T11:30:55.600Z,3.90
2023-04-08T11:33:26.104Z,4.97
2023-04-08T11:35:54.891Z,5.00
2023-04-08T11:38:24.661Z,5.30
2023-04-08T11:40:58.607Z,4.23
2023-04-08T11:43:27.255Z,4.07
2023-04-08T11:45:55.247Z,3.73
2023-04-08T11:48:23.638Z,4.33
2023-04-08T11:51:04.570Z,3.37
2023-04-08T11:53:32.593Z,3.30
2023-04-08T11:56:17.250Z,3.43
2023-04-08T11:58:45.074Z,3.27
2023-04-08T12:01:12.879Z,2.90
2023-04-08T12:03:41.168Z,3.87
2023-04-08T12:06:09.540Z,3.57
2023-04-08T12:08:37.261Z,3.30
2023-04-08T12:11:18.861Z,3.67
2023-04-08T12:13:49.729Z,3.70
2023-04-08T12:16:18.196Z,3.20
2023-04-08T12:18:46.609Z,3.20
2023-04-08T12:21:14.580Z,3.10
2023-04-08T12:23:42.438Z,3.50
2023-04-08T12:26:11.605Z,3.00
2023-04-08T12:28:39.381Z,2.90
2023-04-08T12:31:07.521Z,3.47
2023-04-08T12:33:35.342Z,4.40
2023-04-08T12:36:03.133Z,3.70
2023-04-08T12:38:30.920Z,3.13
2023-04-08T12:40:58.719Z,3.33
2023-04-08T12:43:27.809Z,3.00
2023-04-08T12:45:56.460Z,2.60
2023-04-08T12:48:24.217Z,2.17
2023-04-08T12:50:52.003Z,2.73
2023-04-08T12:53:20.168Z,2.97
2023-04-08T12:55:49.267Z,2.77
2023-04-08T12:58:17.701Z,2.50
2023-04-08T13:00:47.361Z,2.77
2023-04-08T13:03:17.395Z,2.60
2023-04-08T13:05:45.350Z,2.00
2023-04-08T13:08:13.327Z,2.10
2023-04-08T13:10:42.787Z,2.20
2023-04-08T13:13:10.542Z,2.60
2023-04-08T13:15:38.459Z,2.50
2023-04-08T13:18:07.879Z,2.23
2023-04-08T13:20:35.703Z,2.60
2023-04-08T13:23:03.480Z,2.40
2023-04-08T13:25:31.617Z,2.13
2023-04-08T13:27:59.458Z,2.07
2023-04-08T13:30:27.268Z,1.87
2023-04-08T13:32:55.128Z,2.30
2023-04-08T13:35:24.481Z,2.30
2023-04-08T13:37:52.230Z,2.90
2023-04-08T13:40:20.185Z,2.87
2023-04-08T13:42:48.034Z,1.97
2023-04-08T13:45:16.268Z,2.00
2023-04-08T13:47:44.050Z,2.00
2023-04-08T13:50:12.189Z,2.27
2023-04-08T13:52:41.297Z,2.30
2023-04-08T13:55:09.747Z,2.03
2023-04-08T13:57:37.547Z,1.77
2023-04-08T14:00:06.808Z,2.07
2023-04-08T14:02:34.729Z,2.13
2023-04-08T14:05:02.679Z,1.90
2023-04-08T14:07:30.495Z,2.10
2023-04-08T14:09:59.591Z,2.47
2023-04-08T14:12:27.350Z,2.20
2023-04-08T14:14:55.356Z,1.90
2023-04-08T14:17:23.194Z,1.90
2023-04-08T14:19:50.978Z,3.47
2023-04-08T14:22:19.001Z,2.40
2023-04-08T14:24:46.759Z,2.30
2023-04-08T14:27:15.917Z,2.10
2023-04-08T14:29:43.673Z,1.80
2023-04-08T14:32:11.433Z,2.10
2023-04-08T14:34:39.180Z,1.80
2023-04-08T14:37:07.133Z,2.33
2023-04-08T14:39:34.886Z,2.00
2023-04-08T14:42:02.931Z,1.90
2023-04-08T14:44:32.013Z,2.30
2023-04-08T14:46:59.748Z,2.30
2023-04-08T14:49:27.566Z,2.10
2023-04-08T14:51:55.490Z,2.23
2023-04-08T14:54:23.232Z,1.83
2023-04-08T14:56:51.283Z,2.20
2023-04-08T14:59:19.045Z,1.70
2023-04-08T15:01:48.166Z,1.87
2023-04-08T15:04:16.216Z,1.73
2023-04-08T15:06:44.307Z,2.03
2023-04-08T15:09:12.150Z,2.00
2023-04-08T15:11:39.936Z,2.30
2023-04-08T15:14:07.708Z,2.17
2023-04-08T15:16:35.682Z,2.40
2023-04-08T15:19:05.760Z,2.37
2023-04-08T15:21:33.518Z,2.20
2023-04-08T15:24:01.542Z,2.30
2023-04-08T15:26:29.340Z,2.23
2023-04-08T15:28:58.827Z,2.20
2023-04-08T15:31:27.172Z,1.97
2023-04-08T15:33:54.977Z,1.60
2023-04-08T15:36:24.101Z,1.70
2023-04-08T15:38:52.551Z,1.40
2023-04-08T15:41:21.183Z,1.37
2023-04-08T15:43:49.234Z,1.50
2023-04-08T15:46:19.028Z,1.77
2023-04-08T15:48:46.795Z,1.37
2023-04-08T15:51:14.599Z,1.30
2023-04-08T15:53:44.189Z,1.37
2023-04-08T15:56:14.496Z,1.30
2023-04-08T15:58:42.506Z,1.70
2023-04-08T16:01:10.418Z,1.90
2023-04-08T16:03:38.464Z,1.70
2023-04-08T16:06:06.605Z,2.20
2023-04-08T16:08:35.052Z,1.77
2023-04-08T16:11:06.161Z,1.30
2023-04-08T16:13:34.263Z,2.10
2023-04-08T16:16:02.982Z,2.03
2023-04-08T16:18:31.380Z,2.90
2023-04-08T16:20:59.162Z,2.33
2023-04-08T16:23:27.022Z,2.20
2023-04-08T16:25:54.778Z,1.87
2023-04-08T16:28:23.920Z,1.93
2023-04-08T16:30:51.690Z,1.90
2023-04-08T16:33:19.456Z,1.80
2023-04-08T16:35:49.142Z,1.80
2023-04-08T16:38:16.944Z,2.33
2023-04-08T16:40:44.714Z,2.30
2023-04-08T16:43:13.457Z,2.03
2023-04-08T16:45:43.378Z,2.70
2023-04-08T16:48:12.477Z,2.33
2023-04-08T16:50:40.827Z,3.27
2023-04-08T16:53:08.581Z,3.07
2023-04-08T16:55:37.293Z,3.33
2023-04-08T16:58:05.597Z,3.10
2023-04-08T17:00:33.664Z,3.20
2023-04-08T17:03:02.919Z,2.83
2023-04-08T17:05:30.994Z,3.37
2023-04-08T17:07:58.800Z,2.90
2023-04-08T17:10:26.636Z,2.73
2023-04-08T17:12:54.402Z,3.07
2023-04-08T17:15:22.288Z,2.70
2023-04-08T17:17:50.394Z,3.00
2023-04-08T17:20:19.619Z,3.93
2023-04-08T17:22:47.505Z,4.27
2023-04-08T17:25:15.465Z,3.70
2023-04-08T17:27:43.260Z,4.47
2023-04-08T17:30:11.867Z,4.20
2023-04-08T17:32:39.691Z,4.70
2023-04-08T17:35:08.025Z,5.03
2023-04-08T17:37:37.182Z,5.17
2023-04-08T17:40:05.520Z,5.20
2023-04-08T17:42:33.285Z,4.70
2023-04-08T17:45:02.517Z,5.33
2023-04-08T17:47:30.348Z,4.47
2023-04-08T17:49:58.151Z,5.60
2023-04-08T17:52:25.908Z,5.93
2023-04-08T17:54:56.501Z,6.00
2023-04-08T17:57:24.311Z,5.63
2023-04-08T17:59:52.717Z,6.00
2023-04-08T18:02:20.805Z,5.40
2023-04-08T18:04:48.628Z,5.80
2023-04-08T18:07:16.369Z,5.03
2023-04-08T18:09:44.260Z,5.60
2023-04-08T18:12:13.406Z,5.10
2023-04-08T18:14:41.173Z,7.30
2023-04-08T18:17:09.214Z,6.23
2023-04-08T18:19:36.998Z,6.03
2023-04-08T18:22:04.714Z,5.83
2023-04-08T18:24:32.918Z,5.90
2023-04-08T18:27:04.387Z,5.43
2023-04-08T18:29:34.461Z,5.23
2023-04-08T18:32:02.353Z,4.90
2023-04-08T18:34:31.829Z,4.57
2023-04-08T18:36:59.897Z,4.97
2023-04-08T18:39:28.219Z,4.63
2023-04-08T18:41:56.524Z,4.80
2023-04-08T18:44:24.299Z,4.63
2023-04-08T18:46:53.390Z,4.50
2023-04-08T18:49:21.195Z,4.27
2023-04-08T18:52:01.304Z,4.40
2023-04-08T18:54:30.073Z,4.70
2023-04-08T18:56:57.848Z,4.90
2023-04-08T18:59:27.658Z,5.17
2023-04-08T19:01:57.037Z,4.60
2023-04-08T19:04:24.947Z,5.17
2023-04-08T19:06:52.843Z,4.80
2023-04-08T19:09:20.779Z,4.63
2023-04-08T19:11:48.605Z,3.73
2023-04-08T19:14:16.406Z,4.23
2023-04-08T19:16:44.438Z,4.07
2023-04-08T19:19:13.573Z,4.20
2023-04-08T19:21:41.331Z,4.30
2023-04-08T19:24:09.194Z,4.60
2023-04-08T19:26:37.168Z,4.30
2023-04-08T19:29:04.920Z,4.43
2023-04-08T19:31:32.676Z,4.20
2023-04-08T19:34:00.497Z,4.40
2023-04-08T19:36:29.656Z,5.27
2023-04-08T19:38:57.527Z,4.83
2023-04-08T19:41:25.336Z,4.40
2023-04-08T19:43:53.244Z,4.97
2023-04-08T19:46:21.242Z,5.00
2023-04-08T19:48:49.054Z,4.57
2023-04-08T19:51:20.174Z,4.27
2023-04-08T19:53:49.641Z,6.17
2023-04-08T19:56:17.778Z,5.90
2023-04-08T19:58:45.545Z,6.17
2023-04-08T20:01:14.197Z,5.80
2023-04-08T20:03:44.425Z,6.50
2023-04-08T20:06:12.224Z,6.30
2023-04-08T20:08:40.002Z,7.10
2023-04-08T20:11:09.141Z,6.33
2023-04-08T20:13:36.996Z,6.43
2023-04-08T20:16:04.767Z,6.90
2023-04-08T20:18:32.681Z,7.07
2023-04-08T20:21:00.944Z,5.70
2023-04-08T20:23:28.702Z,6.63
2023-04-08T20:25:57.964Z,7.13
2023-04-08T20:28:27.089Z,5.70
2023-04-08T20:30:54.896Z,6.30
2023-04-08T20:33:22.654Z,6.10
2023-04-08T20:35:52.962Z,6.20
2023-04-08T20:38:20.759Z,6.40
2023-04-08T20:40:48.793Z,6.03
2023-04-08T20:43:16.676Z,6.37
2023-04-08T20:45:45.766Z,6.43
2023-04-08T20:48:13.516Z,6.43
2023-04-08T20:50:41.343Z,6.77
2023-04-08T20:53:10.118Z,6.23
2023-04-08T20:55:37.850Z,6.10
2023-04-08T20:58:07.388Z,6.53
2023-04-08T21:00:35.540Z,5.77
2023-04-08T21:03:04.798Z,6.03
2023-04-08T21:05:32.661Z,5.70
2023-04-08T21:08:00.421Z,6.13
2023-04-08T21:10:28.241Z,5.60
2023-04-08T21:12:55.997Z,5.90
2023-04-08T21:15:23.786Z,6.50
2023-04-08T21:17:51.547Z,5.67
2023-04-08T21:20:20.708Z,5.37
2023-04-08T21:22:48.486Z,5.47
2023-04-08T21:25:17.541Z,5.83
2023-04-08T21:27:45.425Z,5.53
2023-04-08T21:30:13.679Z,6.20
2023-04-08T21:32:41.477Z,5.77
2023-04-08T21:35:10.307Z,6.07
2023-04-08T21:37:39.429Z,5.80
2023-04-08T21:40:08.902Z,6.50
2023-04-08T21:42:36.705Z,6.70
2023-04-08T21:45:04.886Z,6.63
2023-04-08T21:47:32.743Z,6.20
2023-04-08T21:50:00.600Z,5.90
2023-04-08T21:52:28.389Z,6.03
2023-04-08T21:54:57.471Z,6.67
2023-04-08T21:57:25.305Z,6.00
2023-04-08T21:59:53.071Z,6.17
2023-04-08T22:02:21.065Z,5.53
2023-04-08T22:04:49.471Z,6.20
2023-04-08T22:07:17.237Z,5.93
2023-04-08T22:09:45.014Z,6.23
2023-04-08T22:12:14.227Z,6.00
2023-04-08T22:14:41.960Z,6.27
2023-04-08T22:17:09.783Z,6.03
2023-04-08T22:19:37.545Z,5.47
2023-04-08T22:22:05.276Z,6.30
2023-04-08T22:24:33.003Z,5.77
2023-04-08T22:27:01.011Z,6.03
2023-04-08T22:29:30.226Z,5.63
2023-04-08T22:31:58.045Z,5.87
2023-04-08T22:34:26.392Z,5.90
2023-04-08T22:36:54.237Z,6.67
2023-04-08T22:39:21.970Z,6.40
2023-04-08T22:41:49.736Z,6.10
2023-04-08T22:44:17.482Z,6.30
2023-04-08T22:46:46.650Z,6.20
2023-04-08T22:49:14.378Z,6.03
2023-04-08T22:51:42.843Z,6.53
2023-04-08T22:54:11.069Z,6.33
2023-04-08T22:56:38.830Z,6.03
2023-04-08T22:59:06.625Z,6.37
2023-04-08T23:01:35.752Z,6.47
2023-04-08T23:04:05.296Z,6.13
2023-04-08T23:06:33.779Z,5.50
2023-04-08T23:09:01.565Z,6.73
2023-04-08T23:11:29.303Z,6.23
2023-04-08T23:13:57.043Z,7.03
2023-04-08T23:16:24.986Z,6.03
2023-04-08T23:18:53.086Z,6.93
2023-04-08T23:21:23.349Z,6.63
2023-04-08T23:23:51.084Z,7.00
2023-04-08T23:26:19.345Z,6.20
2023-04-08T23:28:47.134Z,7.17
2023-04-08T23:31:15.291Z,6.90
2023-04-08T23:33:43.109Z,7.03
2023-04-08T23:36:12.196Z,7.23
2023-04-08T23:38:41.400Z,6.87
2023-04-08T23:41:09.441Z,6.40
2023-04-08T23:43:37.243Z,6.10
2023-04-08T23:46:05.169Z,6.73
2023-04-08T23:48:32.967Z,7.00
2023-04-08T23:51:00.726Z,7.33
2023-04-08T23:53:28.488Z,7.70
2023-04-08T23:56:05.093Z,10.10
2023-04-08T23:58:33.078Z,10.40
